ADDS METAR Data INFO
IDs: Format: Raw Decoded Include TAF

Data at: 1407 UTC 12 Dec 2017

KBDN 121355Z AUTO 13009KT 10SM CLR M08/M12 A3049 RMK AO2
KBDN 121335Z AUTO 13005KT 10SM CLR M07/M11 A3050 RMK AO2
KBDN 121315Z AUTO 12007KT 10SM CLR M08/M12 A3050 RMK AO2
KBDN 121255Z AUTO 12007KT 10SM CLR M08/M12 A3049 RMK AO2
KBDN 121235Z AUTO 13008KT 10SM CLR M08/M12 A3050 RMK AO2
KBDN 121215Z AUTO 13008KT 10SM CLR M08/M12 A3050 RMK AO2
KBDN 121155Z AUTO 12006KT 10SM CLR M08/M12 A3050 RMK AO2
KBDN 121135Z AUTO 14008KT 10SM CLR M08/M12 A3051 RMK AO2
KBDN 121115Z AUTO 12005KT 10SM CLR M08/M12 A3052 RMK AO2
KBDN 121055Z AUTO 00000KT 10SM CLR M08/M12 A3052 RMK AO2
KBDN 121035Z AUTO 15004KT 10SM CLR M08/M12 A3053 RMK AO2
KBDN 121015Z AUTO 14007KT 10SM CLR M08/M11 A3052 RMK AO2
KBDN 120955Z AUTO 11011KT 10SM CLR M07/M11 A3051 RMK AO2
KBDN 120935Z AUTO 14006G11KT 10SM CLR M08/M11 A3051 RMK AO2
KBDN 120915Z AUTO 13005KT 10SM CLR M09/M11 A3051 RMK AO2
KBDN 120855Z AUTO 14004KT 10SM CLR M09/M11 A3051 RMK AO2
KBDN 120835Z AUTO 12004KT 10SM CLR M08/M11 A3051 RMK AO2
KBDN 120815Z AUTO 13004KT 10SM CLR M07/M10 A3052 RMK AO2
KBDN 120755Z AUTO 13006KT 10SM CLR M07/M10 A3051 RMK AO2
KBDN 120735Z AUTO 12007KT 10SM CLR M06/M10 A3051 RMK AO2
KBDN 120715Z AUTO 13004KT 10SM CLR M06/M09 A3052 RMK AO2
KBDN 120655Z AUTO 14005KT 10SM CLR M06/M09 A3052 RMK AO2
KBDN 120635Z AUTO 13004KT 10SM CLR M06/M09 A3052 RMK AO2
KBDN 120615Z AUTO 14006KT 10SM CLR M06/M09 A3052 RMK AO2
KBDN 120555Z AUTO 00000KT 10SM CLR M07/M10 A3053 RMK AO2
KBDN 120535Z AUTO 13006KT 10SM CLR M06/M09 A3052 RMK AO2
KBDN 120515Z AUTO 13005KT 10SM CLR M06/M09 A3051 RMK AO2
KBDN 120455Z AUTO 13007KT 10SM CLR M07/M09 A3051 RMK AO2
KBDN 120435Z AUTO 15003KT 10SM CLR M07/M10 A3051 RMK AO2
KBDN 120415Z AUTO 18005KT 10SM CLR M07/M09 A3052 RMK AO2
KBDN 120355Z AUTO 20003KT 10SM CLR M08/M09 A3052 RMK AO2
KBDN 120335Z AUTO 14004KT 10SM CLR M07/M10 A3051 RMK AO2
KBDN 120315Z AUTO 14003KT 10SM CLR M07/M09 A3052 RMK AO2
KBDN 120255Z AUTO 00000KT 10SM CLR M07/M09 A3052 RMK AO2
KBDN 120235Z AUTO 00000KT 10SM CLR M06/M09 A3052 RMK AO2
KBDN 120215Z AUTO 00000KT 10SM CLR M05/M08 A3051 RMK AO2
KBDN 120155Z AUTO 00000KT 10SM CLR M05/M08 A3051 RMK AO2
KBDN 120135Z AUTO 00000KT 10SM CLR M04/M08 A3051 RMK AO2
KBDN 120115Z AUTO 00000KT 10SM CLR M03/M08 A3050 RMK AO2
KBDN 120055Z AUTO 00000KT 10SM CLR M03/M08 A3048 RMK AO2
KBDN 120035Z AUTO 00000KT 10SM CLR M02/M07 A3049 RMK AO2
KBDN 120015Z AUTO 00000KT 10SM CLR M01/M07 A3048 RMK AO2
KBDN 112355Z AUTO 35004KT 10SM CLR 00/M07 A3048 RMK AO2
KBDN 112335Z AUTO 36005KT 10SM CLR 01/M07 A3047 RMK AO2
KBDN 112315Z AUTO 35003KT 10SM CLR 02/M07 A3047 RMK AO2
KBDN 112255Z AUTO 34004KT CLR 02/M07 A3047 RMK AO2
KBDN 112235Z AUTO 04003KT 10SM CLR 02/M07 A3047 RMK AO2
KBDN 112215Z AUTO 36004KT 10SM CLR 02/M07 A3047 RMK AO2
KBDN 112155Z AUTO 34004KT 10SM CLR 02/M07 A3048 RMK AO2
KBDN 112135Z AUTO 03004KT 10SM CLR 01/M06 A3047 RMK AO2
KBDN 112115Z AUTO 34004KT 10SM CLR 01/M06 A3048 RMK AO2
KBDN 112055Z AUTO 00000KT 10SM CLR 00/M06 A3047 RMK AO2
KBDN 112035Z AUTO 36003KT 10SM CLR 00/M05 A3048 RMK AO2
KBDN 112015Z AUTO 36006KT 10SM CLR 00/M05 A3049 RMK AO2
KBDN 111955Z AUTO 00000KT 10SM CLR M01/M05 A3049 RMK AO2
KBDN 111935Z AUTO 00000KT 10SM CLR M02/M05 A3050 RMK AO2
KBDN 111915Z AUTO 00000KT 10SM CLR M03/M05 A3051 RMK AO2
KBDN 111855Z AUTO 06003KT 10SM CLR M04/M06 A3051 RMK AO2
KBDN 111835Z AUTO 00000KT 10SM CLR M05/M06 A3052 RMK AO2
KBDN 111815Z AUTO 00000KT 8SM CLR M06/M07 A3052 RMK AO2
KBDN 111755Z AUTO 00000KT 8SM -RA CLR M06/M07 A3053 RMK AO2
KBDN 111735Z AUTO 00000KT 9SM -SN CLR M07/M07 A3053 RMK AO2
KBDN 111715Z AUTO 00000KT 8SM -RA CLR M09/M10 A3052 RMK AO2
KBDN 111655Z AUTO 00000KT 9SM CLR M10/M11 A3052 RMK AO2
KBDN 111635Z AUTO 00000KT 8SM CLR M11/M12 A3053 RMK AO2
KBDN 111615Z AUTO 00000KT 7SM CLR M12/M14 A3052 RMK AO2
KBDN 111555Z AUTO 00000KT 6SM BR CLR M13/M15 A3052 RMK AO2
KBDN 111535Z AUTO 00000KT 6SM BR CLR M13/M15 A3051 RMK AO2
KBDN 111515Z AUTO 00000KT 1 1/2SM BR BKN001 M13/M14 A3051 RMK AO2
KBDN 111455Z AUTO 00000KT 1/4SM FZFG OVC001 M12/M13 A3051 RMK AO2
KBDN 111435Z AUTO 00000KT 1/4SM FZFG OVC001 M11/M12 A3051 RMK AO2
KBDN 111415Z AUTO 00000KT 1/4SM FZFG OVC001 M10/M11 A3050 RMK AO2
KBDN 111355Z AUTO 00000KT 1/4SM FZFG OVC001 M10/M11 A3051 RMK AO2
KBDN 111335Z AUTO 00000KT 1/4SM FZFG OVC001 M10/M11 A3050 RMK AO2
KBDN 111315Z AUTO 00000KT M1/4SM FZFG OVC001 M10/M11 A3050 RMK AO2
KBDN 111255Z AUTO 00000KT M1/4SM FZFG OVC001 M09/M10 A3051 RMK AO2
KBDN 111235Z AUTO 00000KT 1/4SM FZFG OVC001 M09/M10 A3051 RMK AO2
KBDN 111215Z AUTO 00000KT M1/4SM FZFG OVC001 M09/M09 A3051 RMK AO2
KBDN 111155Z AUTO 00000KT OVC001 M09/M10 A3051 RMK AO2
KBDN 111135Z AUTO 00000KT 1/4SM FZFG OVC001 M09/M09 A3051 RMK AO2
KBDN 111115Z AUTO 00000KT 1/4SM FZFG OVC001 M08/M09 A3052 RMK AO2
KBDN 111055Z AUTO 00000KT 1/4SM FZFG OVC001 M08/M09 A3052 RMK AO2
KBDN 111035Z AUTO 00000KT 1/4SM FZFG OVC001 M08/M09 A3052 RMK AO2
KBDN 111015Z AUTO 00000KT 1/4SM FZFG OVC001 M08/M09 A3052 RMK AO2
KBDN 110955Z AUTO 00000KT M1/4SM FZFG OVC001 M08/M09 A3052 RMK AO2
KBDN 110935Z AUTO 00000KT 1/4SM FZFG OVC001 M08/M09 A3052 RMK AO2
KBDN 110915Z AUTO 00000KT 1/4SM FZFG OVC001 M08/M08 A3052 RMK AO2
KBDN 110855Z AUTO 00000KT M1/4SM FZFG OVC001 M08/M09 A3051 RMK AO2
KBDN 110835Z AUTO 00000KT M1/4SM FZFG OVC001 M08/M09 A3051 RMK AO2
KBDN 110815Z AUTO 00000KT M1/4SM FZFG OVC001 M08/M09 A3051 RMK AO2
KBDN 110755Z AUTO 00000KT M1/4SM FZFG OVC001 M08/M09 A3052 RMK AO2
KBDN 110735Z AUTO 00000KT M1/4SM FZFG OVC001 M08/M08 A3051 RMK AO2
KBDN 110715Z AUTO 00000KT M1/4SM FZFG OVC001 M08/M08 A3051 RMK AO2 VIS M1/4V5
KBDN 110655Z AUTO 00000KT M1/4SM FZFG OVC001 M08/M08 A3051 RMK AO2
KBDN 110635Z AUTO 00000KT M1/4SM FZFG OVC001 M07/M08 A3051 RMK AO2 VIS M1/4V5
KBDN 110615Z AUTO 00000KT M1/4SM FZFG OVC001 M07/M08 A3050 RMK AO2
KBDN 110555Z AUTO 00000KT M1/4SM FZFG OVC001 M07/M08 A3050 RMK AO2
KBDN 110535Z AUTO 00000KT M1/4SM FZFG OVC001 M07/M08 A3050 RMK AO2
KBDN 110515Z AUTO 00000KT M1/4SM FZFG OVC001 M07/M08 A3050 RMK AO2
KBDN 110455Z AUTO 00000KT M1/4SM FZFG OVC001 M07/M08 A3050 RMK AO2
KBDN 110435Z AUTO 00000KT 1/4SM FZFG OVC001 M07/M08 A3051 RMK AO2
KBDN 110415Z AUTO 00000KT 1/4SM FZFG OVC001 M07/M08 A3051 RMK AO2
KBDN 110355Z AUTO 31003KT 8SM SCT002 M07/M08 A3051 RMK AO2
KBDN 110335Z AUTO 00000KT 9SM CLR M07/M09 A3051 RMK AO2
KBDN 110315Z AUTO 00000KT 9SM CLR M07/M08 A3051 RMK AO2
KBDN 110255Z AUTO 00000KT 10SM CLR M07/M07 A3051 RMK AO2
KBDN 110235Z AUTO 00000KT 10SM CLR M06/M07 A3050 RMK AO2
KBDN 110215Z AUTO 00000KT 10SM CLR M06/M07 A3050 RMK AO2